Time;durP1;ratioP1;P1;durP2;ratioP2;P2;SDS_P1;SDS_P2;PMS_P1;PMS_P2;Temp;Humidity;BMP_temperature;BMP_pressure;BME280_temperature;BME280_humidity;BME280_pressure;Samples;Min_cycle;Max_cycle;Signal;HPM_P1;HPM_P2
2022/04/28 06:10:43;;;;;;;4.00;2.50;;;;;;;16.00;47.77;97820.28;3230752;23;20200;-94
2022/04/28 06:13:10;;;;;;;3.57;2.60;;;;;;;15.78;48.10;97746.41;4902401;29;20181;-94
2022/04/28 06:15:36;;;;;;;4.40;2.77;;;;;;;17.31;47.99;98012.78;4930246;29;20199;-94
2022/04/28 06:18:03;;;;;;;2.60;2.40;;;;;;;17.67;48.05;98102.06;4920011;29;20181;-95
2022/04/28 06:20:30;;;;;;;7.37;2.80;;;;;;;14.01;47.46;97444.47;4895703;29;20174;-95
2022/04/28 06:22:57;;;;;;;5.03;2.60;;;;;;;18.80;48.00;98290.47;4910756;29;20192;-95
2022/04/28 06:25:24;;;;;;;4.33;2.57;;;;;;;18.65;48.11;98243.84;4916872;29;20170;-93
2022/04/28 06:35:58;;;;;;;4.33;3.03;;;;;;;16.88;47.90;98002.00;3317436;27;20202;-95
2022/04/28 06:38:25;;;;;;;5.40;3.50;;;;;;;17.48;47.78;98066.31;4931112;28;20217;-95
2022/04/28 06:40:51;;;;;;;5.93;3.67;;;;;;;16.95;47.47;97970.19;4943174;29;20719;-94
2022/04/28 06:43:18;;;;;;;6.60;4.30;;;;;;;14.26;47.39;97505.78;4936444;29;20197;-94
2022/04/28 07:02:00;;;;;;;7.00;5.97;;;;;;;15.23;46.94;97679.13;1337159;27;20200;-95
2022/04/28 07:04:27;;;;;;;7.30;5.17;;;;;;;18.62;47.16;98336.19;4929486;29;20185;-95
2022/04/28 07:06:53;;;;;;;6.13;5.10;;;;;;;13.62;46.56;97449.75;4908689;29;20214;-94
2022/04/28 07:09:43;;;;;;;7.27;5.27;;;;;;;13.46;47.41;97456.34;5011335;24;20273;-95
2022/04/28 07:12:32;;;;;;;6.60;5.00;;;;;;;15.00;47.83;97665.94;4934083;29;20173;-95
2022/04/28 07:14:59;;;;;;;6.60;4.97;;;;;;;16.87;47.55;98024.78;4912928;29;20158;-94
2022/04/28 07:17:25;;;;;;;10.90;5.37;;;;;;;15.04;47.45;97737.06;4899623;29;20202;-95
2022/04/28 07:19:52;;;;;;;10.40;5.30;;;;;;;15.50;47.59;97770.97;4909955;29;20198;-95
2022/04/28 07:22:19;;;;;;;7.03;5.20;;;;;;;17.93;47.75;98185.69;4918510;29;20213;-92
2022/04/28 07:24:46;;;;;;;6.13;4.83;;;;;;;17.65;47.68;98146.84;4908532;29;20245;-95
2022/04/28 07:35:27;;;;;;;5.50;4.73;;;;;;;14.17;48.14;97522.91;4957101;29;20213;-94
2022/04/28 07:38:08;;;;;;;17.63;5.43;;;;;;;14.51;48.06;97668.19;4922844;29;20161;-94
2022/04/28 07:54:17;;;;;;;13.97;4.40;;;;;;;19.16;48.18;98384.06;4962708;23;20747;-89
2022/04/28 07:56:46;;;;;;;12.07;4.27;;;;;;;18.98;48.40;98373.78;4942958;28;20213;-92
2022/04/28 07:59:13;;;;;;;7.40;4.57;;;;;;;18.82;48.08;98327.06;4913849;28;20196;-90
2022/04/28 08:01:50;;;;;;;6.53;4.20;;;;;;;18.87;48.34;98333.28;4949098;28;20196;-91
2022/04/28 08:04:17;;;;;;;7.80;3.97;;;;;;;19.29;48.23;98397.56;4940250;28;20238;-90
2022/04/28 08:06:43;;;;;;;7.67;3.80;;;;;;;18.03;47.97;98195.56;4908600;29;20194;-90
2022/04/28 08:09:10;;;;;;;5.87;3.80;;;;;;;18.58;48.25;98295.22;4923658;29;20186;-91
2022/04/28 08:11:39;;;;;;;9.57;3.70;;;;;;;18.71;48.58;98316.31;4937645;29;20194;-91
2022/04/28 08:14:06;;;;;;;8.00;4.03;;;;;;;18.29;48.36;98245.28;4924684;29;20198;-92
2022/04/28 08:16:32;;;;;;;3.80;3.20;;;;;;;18.45;48.27;98259.72;4909173;29;20194;-91
2022/04/28 08:19:02;;;;;;;7.53;3.70;;;;;;;19.71;48.43;98483.91;4914859;29;20209;-92
2022/04/28 08:21:29;;;;;;;4.80;3.23;;;;;;;18.30;48.28;98228.34;4908051;29;20214;-92
2022/04/28 08:23:56;;;;;;;5.80;3.40;;;;;;;18.59;47.99;98302.06;4937621;29;20224;-91
2022/04/28 08:26:22;;;;;;;6.37;3.70;;;;;;;18.20;48.45;98226.97;4922346;29;20197;-91
2022/04/28 08:28:49;;;;;;;5.13;3.60;;;;;;;18.99;48.05;98359.38;4925418;29;20202;-91
2022/04/28 08:31:16;;;;;;;8.93;3.70;;;;;;;18.23;48.28;98266.19;4890403;28;20188;-92
2022/04/28 08:33:47;;;;;;;7.07;3.63;;;;;;;17.49;48.26;98112.91;4903169;29;20198;-91
2022/04/28 08:36:15;;;;;;;7.73;3.10;;;;;;;18.22;48.36;98235.56;4915225;29;20206;-92
2022/04/28 08:38:42;;;;;;;7.20;3.43;;;;;;;18.70;48.36;98327.28;4911742;29;20223;-91
2022/04/28 08:41:10;;;;;;;9.17;3.40;;;;;;;18.88;48.42;98373.22;4922186;29;20216;-90
2022/04/28 08:43:37;;;;;;;5.10;3.00;;;;;;;18.37;48.41;98276.22;4900466;29;20190;-91
2022/04/28 08:48:51;;;;;;;5.93;3.60;;;;;;;19.68;48.27;98486.31;4937457;29;20197;-91
2022/04/28 08:51:19;;;;;;;7.73;3.67;;;;;;;18.92;48.13;98365.81;4937534;29;20446;-91
2022/04/28 08:53:47;;;;;;;4.73;3.80;;;;;;;18.46;48.16;98282.72;4921162;29;20238;-91
2022/04/28 08:56:15;;;;;;;4.27;3.67;;;;;;;18.78;48.32;98337.88;4919090;29;20205;-90
2022/04/28 08:58:42;;;;;;;5.23;3.17;;;;;;;19.07;48.26;98389.53;4895057;29;20206;-91
2022/04/28 09:01:09;;;;;;;4.43;3.53;;;;;;;18.89;48.22;98363.09;4914032;29;20303;-90
2022/04/28 09:03:36;;;;;;;4.30;3.40;;;;;;;18.88;48.47;98363.91;4921488;29;20193;-90
2022/04/28 09:06:29;;;;;;;4.90;3.70;;;;;;;18.96;48.33;98380.50;4939166;28;20205;-91
2022/04/28 09:09:10;;;;;;;8.33;3.80;;;;;;;18.37;48.31;98287.31;4912326;29;20193;-90
2022/04/28 09:11:39;;;;;;;7.97;3.80;;;;;;;18.41;48.36;98288.38;4909938;29;20211;-90
2022/04/28 09:14:11;;;;;;;4.90;3.77;;;;;;;17.76;48.34;98160.13;4913447;28;20198;-91
2022/04/28 09:16:42;;;;;;;5.60;3.40;;;;;;;18.03;48.60;98207.41;4926782;29;20185;-90
2022/04/28 09:19:10;;;;;;;5.83;3.50;;;;;;;17.45;48.32;98133.88;4896774;29;20189;-90
2022/04/28 09:21:37;;;;;;;4.17;3.33;;;;;;;17.48;48.35;98127.28;4921076;29;20218;-90
2022/04/28 09:24:04;;;;;;;5.30;3.43;;;;;;;18.24;48.62;98259.44;4921704;29;20221;-90
2022/04/28 09:26:32;;;;;;;4.90;3.40;;;;;;;17.93;48.37;98184.81;4921942;29;20182;-91
2022/04/28 09:29:02;;;;;;;4.90;3.70;;;;;;;17.84;48.48;98190.28;4921963;29;20197;-90
2022/04/28 09:31:38;;;;;;;6.90;3.17;;;;;;;18.51;48.59;98311.84;4921239;29;20197;-91
2022/04/28 09:34:25;;;;;;;6.60;3.80;;;;;;;17.73;48.61;98155.78;4937157;29;20205;-90
2022/04/28 09:36:54;;;;;;;4.43;2.87;;;;;;;19.26;48.53;98405.03;4920160;29;20190;-91
2022/04/28 09:44:57;;;;;;;4.47;3.33;;;;;;;18.41;48.68;98285.81;4923380;29;20217;-90
2022/04/28 09:47:25;;;;;;;3.30;2.70;;;;;;;18.44;48.45;98283.44;4924636;29;20199;-91
2022/04/28 09:49:57;;;;;;;4.27;2.87;;;;;;;18.62;48.48;98304.78;4885861;29;20227;-90
2022/04/28 09:52:24;;;;;;;4.50;3.03;;;;;;;19.69;48.58;98484.63;4906469;29;20209;-90
2022/04/28 09:54:51;;;;;;;3.27;2.97;;;;;;;18.36;48.89;98249.03;4936914;29;20205;-91
2022/04/28 09:57:20;;;;;;;3.93;3.40;;;;;;;19.16;48.77;98428.25;4915662;29;20193;-92
2022/04/28 09:59:47;;;;;;;5.00;3.07;;;;;;;19.26;48.74;98406.69;4888216;29;20201;-91
2022/04/28 10:02:16;;;;;;;5.60;3.50;;;;;;;19.24;48.86;98421.88;4935400;29;20193;-90
2022/04/28 10:04:43;;;;;;;5.27;3.00;;;;;;;18.88;48.93;98330.81;4937230;29;20220;-91
2022/04/28 10:07:16;;;;;;;3.93;2.87;;;;;;;18.87;48.77;98333.28;4906759;29;20564;-91
2022/04/28 10:09:48;;;;;;;3.83;3.00;;;;;;;19.24;48.79;98392.97;4936476;29;20198;-89
2022/04/28 10:12:18;;;;;;;4.63;2.70;;;;;;;18.51;48.83;98282.97;4924304;29;20216;-90
2022/04/28 10:14:45;;;;;;;6.37;2.90;;;;;;;18.41;48.50;98260.38;4935676;29;20221;-88
2022/04/28 10:17:15;;;;;;;3.53;2.67;;;;;;;18.51;48.90;98272.78;4920661;29;20190;-90
2022/04/28 10:19:44;;;;;;;3.80;2.67;;;;;;;18.45;49.23;98273.34;4920454;29;20409;-90
2022/04/28 10:22:23;;;;;;;2.60;2.30;;;;;;;19.67;49.31;98476.03;4920092;29;20192;-91
2022/04/28 10:33:21;;;;;;;4.83;2.83;;;;;;;18.27;49.18;98237.56;4926139;29;20232;-90
2022/04/28 10:35:50;;;;;;;5.03;2.93;;;;;;;19.73;49.21;98468.69;4936311;29;20181;-90
2022/04/28 10:38:34;;;;;;;4.57;3.00;;;;;;;19.73;49.15;98473.78;4936863;29;20193;-89
2022/04/28 10:41:02;;;;;;;4.70;3.23;;;;;;;19.25;49.05;98405.81;4935285;28;20229;-91
2022/04/28 10:43:31;;;;;;;3.87;2.57;;;;;;;19.73;48.86;98471.22;4905081;29;20237;-89
2022/04/28 10:46:24;;;;;;;3.00;2.33;;;;;;;19.73;48.94;98468.69;4938482;28;20221;-89
2022/04/28 10:48:59;;;;;;;4.93;3.27;;;;;;;19.31;48.86;98392.53;4930014;29;20186;-90
2022/04/28 10:51:27;;;;;;;4.80;2.90;;;;;;;18.70;48.66;98319.66;4935499;29;20209;-90
2022/04/28 10:54:06;;;;;;;4.80;2.90;;;;;;;19.73;49.05;98474.66;4935174;29;20209;-90
2022/04/28 10:56:42;;;;;;;3.43;2.93;;;;;;;19.73;48.93;98474.66;4924714;29;20210;-89
2022/04/28 10:59:28;;;;;;;5.73;2.80;;;;;;;19.74;48.97;98475.53;4926001;29;20193;-90
2022/04/28 11:01:56;;;;;;;3.47;2.70;;;;;;;18.25;49.13;98223.03;4935886;29;20182;-89
2022/04/28 11:04:23;;;;;;;4.53;2.83;;;;;;;18.64;49.15;98285.34;4936663;28;20231;-90
2022/04/28 11:06:51;;;;;;;4.23;3.03;;;;;;;19.22;48.93;98384.41;4938064;28;20206;-89
2022/04/28 11:09:35;;;;;;;4.53;2.97;;;;;;;18.41;49.09;98242.56;4932469;28;20194;-90
2022/04/28 11:12:13;;;;;;;3.20;2.73;;;;;;;19.72;49.00;98483.09;4931379;29;20257;-88
2022/04/28 11:15:20;;;;;;;4.37;3.20;;;;;;;18.49;49.06;98267.59;4935614;29;20217;-89
2022/04/28 11:17:47;;;;;;;4.30;3.00;;;;;;;18.36;48.97;98259.22;4910670;29;20392;-90
2022/04/28 11:20:14;;;;;;;4.47;3.17;;;;;;;18.48;49.11;98267.53;4938082;28;20205;-90
2022/04/28 11:22:42;;;;;;;4.07;2.70;;;;;;;19.06;49.00;98366.53;4926268;29;20174;-90
2022/04/28 11:25:09;;;;;;;4.93;3.40;;;;;;;18.44;49.10;98260.53;4935003;29;20213;-90
2022/04/28 11:27:36;;;;;;;4.43;3.43;;;;;;;18.97;49.09;98366.06;4934925;28;20194;-90
2022/04/28 11:30:03;;;;;;;4.80;3.27;;;;;;;19.10;49.10;98383.75;4904008;29;20221;-90
2022/04/28 11:32:30;;;;;;;6.67;3.40;;;;;;;17.82;49.11;98155.38;4923108;29;20206;-91
2022/04/28 11:34:57;;;;;;;3.87;3.10;;;;;;;18.63;49.06;98327.78;4934207;29;20202;-90
2022/04/28 11:37:25;;;;;;;3.77;3.07;;;;;;;17.98;49.09;98188.47;4909996;29;20206;-90
2022/04/28 11:39:53;;;;;;;3.83;3.30;;;;;;;18.57;49.13;98280.75;4926081;29;20397;-90
2022/04/28 11:42:41;;;;;;;4.17;3.20;;;;;;;18.71;49.21;98298.47;4924160;29;20210;-89
2022/04/28 11:45:08;;;;;;;6.03;3.53;;;;;;;18.43;49.07;98252.00;4933369;29;20253;-89
2022/04/28 11:47:44;;;;;;;5.23;3.60;;;;;;;17.82;48.99;98153.72;4922108;29;20194;-89
2022/04/28 11:50:20;;;;;;;6.03;3.80;;;;;;;18.86;48.92;98321.34;4912093;29;20191;-89
2022/04/28 11:53:03;;;;;;;5.23;3.10;;;;;;;18.18;49.25;98224.34;4940042;28;20197;-88
2022/04/28 11:55:31;;;;;;;5.50;3.83;;;;;;;18.60;49.01;98307.25;4923571;29;20281;-88
2022/04/28 11:57:58;;;;;;;6.27;3.90;;;;;;;18.94;49.22;98348.06;4912628;29;20294;-89
2022/04/28 12:00:25;;;;;;;7.70;3.70;;;;;;;19.23;49.10;98388.69;4914301;29;20264;-89
2022/04/28 12:02:55;;;;;;;4.93;3.57;;;;;;;18.76;49.09;98327.63;4936378;29;20190;-89
2022/04/28 12:05:23;;;;;;;6.97;4.20;;;;;;;19.17;49.12;98381.59;4942315;28;20229;-89
2022/04/28 12:07:53;;;;;;;5.27;3.57;;;;;;;18.70;49.19;98318.75;4924602;29;20186;-89
2022/04/28 12:16:16;;;;;;;5.73;3.70;;;;;;;18.52;49.18;98277.06;4936432;29;20217;-89
2022/04/28 12:21:37;;;;;;;6.93;4.10;;;;;;;18.35;49.18;98239.66;4923487;29;20188;-90
2022/04/28 12:24:11;;;;;;;5.93;4.00;;;;;;;18.90;49.14;98330.88;4926757;29;20484;-90
2022/04/28 12:26:40;;;;;;;5.20;3.80;;;;;;;19.67;49.14;98455.63;4938005;29;20225;-90
2022/04/28 12:29:14;;;;;;;5.47;4.07;;;;;;;19.70;49.22;98460.88;4907369;29;20174;-90
2022/04/28 12:31:41;;;;;;;5.17;3.97;;;;;;;17.56;49.22;98112.47;4924289;29;20218;-89
2022/04/28 12:34:13;;;;;;;5.77;3.70;;;;;;;18.84;49.23;98326.34;4938012;29;20206;-89
2022/04/28 12:36:48;;;;;;;8.17;3.70;;;;;;;18.43;49.32;98249.47;4937927;29;20185;-91
2022/04/28 12:39:18;;;;;;;6.77;3.97;;;;;;;19.01;49.26;98338.28;4922048;29;20185;-89
2022/04/28 12:41:46;;;;;;;6.40;4.17;;;;;;;18.53;49.21;98261.88;4937760;29;20189;-90
2022/04/28 12:44:12;;;;;;;7.13;3.73;;;;;;;18.31;49.25;98217.38;4942951;28;20498;-90
2022/04/28 12:46:41;;;;;;;6.90;4.10;;;;;;;18.09;49.07;98173.00;4941335;28;20218;-90
2022/04/28 12:49:09;;;;;;;6.53;3.90;;;;;;;18.51;49.16;98257.50;4921289;29;20182;-89
2022/04/28 12:51:49;;;;;;;6.37;3.80;;;;;;;18.17;49.16;98187.00;4920879;29;20206;-89
2022/04/28 12:54:16;;;;;;;6.97;3.83;;;;;;;19.70;49.17;98449.00;4920577;29;20209;-89
2022/04/28 12:56:54;;;;;;;4.80;3.57;;;;;;;18.08;48.99;98166.16;4931682;29;20582;-91
2022/04/28 12:59:27;;;;;;;8.23;3.80;;;;;;;18.71;49.33;98277.25;4898465;29;20245;-90
2022/04/28 13:01:56;;;;;;;4.57;3.60;;;;;;;18.82;49.31;98291.41;4942192;28;20206;-90
2022/04/28 13:04:26;;;;;;;4.30;3.83;;;;;;;18.38;49.34;98211.84;4935662;28;20257;-90
2022/04/28 13:06:53;;;;;;;4.83;3.57;;;;;;;18.58;49.38;98255.38;4927928;29;20342;-90
2022/04/28 13:09:26;;;;;;;5.37;3.53;;;;;;;18.14;49.18;98188.50;4924036;29;20217;-89
2022/04/28 13:11:53;;;;;;;3.97;3.00;;;;;;;18.27;49.05;98212.94;4936919;29;20190;-90
2022/04/28 13:14:20;;;;;;;5.20;3.60;;;;;;;19.69;49.23;98429.38;4921104;29;20217;-90
2022/04/28 13:16:47;;;;;;;6.23;3.80;;;;;;;18.79;49.16;98270.88;4905558;29;20231;-89
2022/04/28 13:19:14;;;;;;;5.87;3.63;;;;;;;18.89;49.27;98285.84;4937547;29;20202;-90
2022/04/28 13:21:41;;;;;;;5.17;4.03;;;;;;;18.41;49.27;98227.28;4936001;29;20198;-90
2022/04/28 13:24:08;;;;;;;4.73;3.60;;;;;;;19.21;49.31;98339.28;4920762;29;20197;-90
2022/04/28 13:26:35;;;;;;;4.93;3.20;;;;;;;19.01;49.10;98314.50;4936950;29;20224;-89
2022/04/28 13:29:01;;;;;;;6.03;3.80;;;;;;;18.24;49.37;98158.53;4936206;29;20185;-89
2022/04/28 13:31:28;;;;;;;4.93;3.70;;;;;;;19.24;49.58;98344.56;4936579;29;20182;-89
2022/04/28 13:33:56;;;;;;;6.63;3.57;;;;;;;18.85;49.27;98271.19;4912680;28;20854;-90
2022/04/28 13:36:24;;;;;;;4.77;3.40;;;;;;;18.61;49.25;98219.88;4911470;29;20194;-90
2022/04/28 13:38:50;;;;;;;4.47;3.50;;;;;;;17.85;49.37;98100.50;4919065;29;20185;-89
2022/04/28 13:41:17;;;;;;;4.07;3.33;;;;;;;19.21;49.26;98335.09;4935157;29;20198;-89
2022/04/28 13:43:44;;;;;;;5.20;3.67;;;;;;;17.97;49.32;98118.94;4926749;29;20324;-90
2022/04/28 13:46:12;;;;;;;4.90;3.50;;;;;;;18.23;49.23;98151.69;4941406;28;20217;-90
2022/04/28 13:48:38;;;;;;;4.23;3.70;;;;;;;19.06;49.27;98295.19;4937101;29;20206;-89
2022/04/28 13:51:06;;;;;;;5.37;3.60;;;;;;;19.28;49.24;98324.47;4935986;29;20226;-90
2022/04/28 13:53:33;;;;;;;5.53;3.63;;;;;;;18.26;49.29;98138.25;4934605;29;20205;-89
2022/04/28 14:01:33;;;;;;;4.97;3.40;;;;;;;19.70;49.15;98413.31;4966433;23;20196;-95
2022/04/28 14:04:14;;;;;;;4.10;3.47;;;;;;;14.66;49.40;97560.31;4928311;29;20170;-95
2022/04/28 14:06:55;;;;;;;4.17;3.40;;;;;;;16.16;49.47;97848.22;4912910;29;20202;-94
2022/04/28 14:09:35;;;;;;;3.63;3.23;;;;;;;16.03;48.87;97795.13;4910021;29;20227;-94
2022/04/28 14:12:16;;;;;;;4.00;3.10;;;;;;;16.01;49.02;97751.06;4896835;29;20162;-93
2022/04/28 14:14:56;;;;;;;3.80;3.13;;;;;;;14.73;48.79;97571.66;4896419;29;20187;-94
2022/04/28 14:17:39;;;;;;;4.10;3.23;;;;;;;14.00;48.81;97439.31;4896764;29;20170;-95
2022/04/28 14:21:12;;;;;;;4.83;3.40;;;;;;;19.71;49.30;98379.34;4910109;29;20198;-96
2022/04/28 14:23:53;;;;;;;5.00;3.40;;;;;;;14.18;49.19;97407.56;4909421;29;20159;-94
2022/04/28 14:26:23;;;;;;;6.10;3.20;;;;;;;14.00;49.07;97434.28;4908459;29;20206;-95
2022/04/28 14:29:05;;;;;;;5.30;3.43;;;;;;;17.66;48.63;98076.56;4896688;29;20170;-94
2022/04/28 14:31:34;;;;;;;4.60;3.47;;;;;;;16.31;50.04;97790.75;4907024;29;20190;-94
2022/04/28 14:38:41;;;;;;;3.53;3.07;;;;;;;13.12;49.22;97294.53;4886409;29;20164;-95
2022/04/28 14:41:36;;;;;;;5.30;3.40;;;;;;;19.71;49.27;98454.97;4886141;29;20188;-95
2022/04/28 14:45:01;;;;;;;3.50;3.13;;;;;;;14.88;49.66;97619.72;4899958;29;20210;-95
2022/04/28 14:47:41;;;;;;;3.87;3.33;;;;;;;17.65;49.70;98072.28;4895567;29;20245;-94
2022/04/28 14:52:54;;;;;;;3.50;2.70;;;;;;;17.33;49.28;98047.66;4919597;28;20186;-93
2022/04/28 14:55:21;;;;;;;4.17;3.17;;;;;;;17.30;49.27;97990.72;4927444;28;20215;-92
2022/04/28 14:57:48;;;;;;;3.53;3.20;;;;;;;19.71;49.30;98386.09;4891380;29;20185;-94
2022/04/28 15:00:21;;;;;;;3.20;2.90;;;;;;;16.07;49.70;97759.88;4910059;29;20204;-93
2022/04/28 15:02:49;;;;;;;3.10;2.67;;;;;;;15.83;48.92;97765.25;4929526;29;20213;-93
2022/04/28 15:05:30;;;;;;;3.80;2.80;;;;;;;16.21;49.21;97841.75;4906087;29;20273;-95
2022/04/28 15:50:11;;;;;;;4.67;2.80;;;;;;;16.90;49.51;97875.16;5631391;23;20201;-95
2022/04/28 15:53:13;;;;;;;2.90;2.60;;;;;;;14.35;48.66;97429.59;4918569;29;20225;-94
2022/04/28 15:55:46;;;;;;;4.50;3.00;;;;;;;13.30;49.18;97250.19;4897828;29;20187;-93
2022/04/28 15:58:27;;;;;;;3.07;2.77;;;;;;;14.87;49.26;97590.16;4898821;29;20162;-95
2022/04/28 16:48:31;;;;;;;2.93;2.50;;;;;;;15.19;49.46;97661.16;5770376;23;20204;-94
2022/04/28 16:51:11;;;;;;;2.97;2.40;;;;;;;14.93;49.01;97568.59;4921845;29;20224;-95
2022/04/28 16:53:52;;;;;;;4.03;2.43;;;;;;;13.28;49.19;97259.31;4915255;29;20177;-94
2022/04/28 16:56:42;;;;;;;2.40;2.20;;;;;;;16.17;49.49;97756.19;4930175;29;20190;-94
2022/04/28 16:59:51;;;;;;;2.83;2.40;;;;;;;15.43;49.66;97627.97;4914908;29;20174;-94
2022/04/28 17:07:26;;;;;;;3.03;2.40;;;;;;;16.73;49.49;97866.66;4906484;29;20201;-95
2022/04/28 19:00:50;;;;;;;2.53;2.33;;;;;;;18.25;49.44;98230.66;3111619;27;20189;-95
2022/04/28 19:03:18;;;;;;;2.60;2.40;;;;;;;16.21;49.62;97878.13;4907692;29;20245;-94
2022/04/28 19:06:26;;;;;;;2.73;2.00;;;;;;;14.01;49.46;97515.19;4911769;29;20265;-94
2022/04/28 19:12:13;;;;;;;2.70;2.17;;;;;;;16.17;49.51;97886.34;5447831;23;20228;-94
2022/04/28 19:14:59;;;;;;;2.40;2.20;;;;;;;15.37;49.11;97806.50;4918650;29;20173;-93
2022/04/28 19:17:39;;;;;;;2.67;2.27;;;;;;;13.48;49.46;97416.91;4918295;29;20162;-95
2022/04/28 19:20:12;;;;;;;2.77;2.10;;;;;;;16.92;49.69;98056.34;4931335;29;20177;-94
2022/04/28 19:22:39;;;;;;;2.40;2.20;;;;;;;18.39;49.65;98336.63;4931403;29;20177;-94
2022/04/28 19:25:07;;;;;;;3.30;2.40;;;;;;;16.10;49.26;97946.75;4899736;29;20182;-94
2022/04/28 19:27:55;;;;;;;4.37;2.37;;;;;;;16.13;49.28;97889.50;4920773;29;20182;-95
2022/04/28 19:30:37;;;;;;;2.80;2.20;;;;;;;16.21;49.07;97922.91;4904574;29;20194;-95
2022/04/28 19:33:05;;;;;;;5.50;2.23;;;;;;;16.05;49.37;97912.69;4915071;29;20170;-95
2022/04/28 19:35:42;;;;;;;2.40;2.20;;;;;;;16.19;49.75;97919.38;4920869;29;20169;-94
2022/04/28 19:38:42;;;;;;;2.40;2.20;;;;;;;14.07;49.11;97528.19;4942816;29;20170;-95
2022/04/28 19:41:23;;;;;;;2.47;2.27;;;;;;;15.75;49.45;97848.44;4924916;29;20180;-94
2022/04/28 19:43:52;;;;;;;2.33;2.13;;;;;;;16.17;49.98;97959.88;4905581;29;20194;-94
2022/04/28 19:46:42;;;;;;;2.67;2.47;;;;;;;16.22;50.05;97917.03;4930435;29;20198;-94
2022/04/28 19:49:41;;;;;;;2.93;2.40;;;;;;;14.80;49.69;97674.94;4920422;29;20174;-94
2022/04/28 19:52:57;;;;;;;2.03;1.93;;;;;;;17.61;50.07;98146.59;4943253;29;20176;-94
2022/04/28 19:56:27;;;;;;;3.60;2.30;;;;;;;16.25;49.38;97929.88;4941576;29;20158;-95
